createdAt,value
2023-01-19T22:44:13.045Z,17.80
2023-01-19T22:45:13.267Z,23.00
2023-01-19T22:46:13.033Z,25.40
2023-01-19T22:47:12.984Z,26.60
2023-01-19T22:48:12.972Z,26.70
2023-01-19T22:49:12.964Z,26.70
2023-01-19T22:50:12.956Z,26.40
2023-01-19T22:51:12.962Z,25.90
2023-01-19T22:52:12.956Z,27.00
2023-01-19T22:53:12.923Z,26.40
2023-01-19T22:54:12.926Z,25.80
2023-01-19T22:55:13.344Z,25.90
2023-01-19T22:56:12.892Z,25.50
2023-01-19T22:57:12.891Z,25.60
2023-01-19T22:58:12.866Z,25.10
2023-01-19T22:59:12.874Z,25.80
2023-01-19T23:00:12.871Z,24.60
2023-01-19T23:01:12.999Z,24.60
2023-01-19T23:02:12.882Z,24.60
2023-01-19T23:03:12.811Z,24.20
2023-01-19T23:04:12.851Z,23.60
2023-01-19T23:05:13.263Z,23.50
2023-01-19T23:06:12.783Z,24.70
2023-01-19T23:07:12.777Z,23.20
2023-01-19T23:08:12.763Z,23.80
2023-01-19T23:09:12.755Z,23.50
2023-01-19T23:10:12.751Z,24.40
2023-01-19T23:11:12.723Z,24.00
2023-01-19T23:12:12.729Z,23.90
2023-01-19T23:13:12.724Z,22.70
2023-01-19T23:14:12.702Z,23.60
2023-01-19T23:15:12.980Z,24.20
2023-01-19T23:16:12.696Z,22.30
2023-01-19T23:17:12.680Z,23.80
2023-01-19T23:18:12.675Z,24.50
2023-01-19T23:19:12.650Z,22.80
2023-01-19T23:20:12.644Z,24.60
2023-01-19T23:21:12.619Z,23.00
2023-01-19T23:22:12.643Z,23.30
2023-01-19T23:23:12.600Z,24.10
2023-01-19T23:24:12.602Z,23.50
2023-01-19T23:25:12.856Z,22.80
2023-01-19T23:26:12.573Z,23.40
2023-01-19T23:27:12.562Z,23.70
2023-01-19T23:28:12.556Z,23.40
2023-01-19T23:29:12.526Z,23.90
2023-01-19T23:30:12.526Z,23.40
2023-01-19T23:31:12.640Z,22.50
2023-01-19T23:32:12.526Z,23.10
2023-01-19T23:33:12.490Z,22.60
2023-01-19T23:34:12.476Z,22.80
2023-01-19T23:35:12.730Z,22.60
2023-01-19T23:36:12.448Z,23.40
2023-01-19T23:37:12.451Z,23.10
2023-01-19T23:38:12.430Z,22.30
2023-01-19T23:39:12.438Z,23.90
2023-01-19T23:40:12.450Z,23.80
2023-01-19T23:41:12.405Z,22.50
2023-01-19T23:42:12.400Z,23.60
2023-01-19T23:43:12.373Z,24.40
2023-01-19T23:44:12.359Z,22.90
2023-01-19T23:45:12.704Z,23.10
2023-01-19T23:46:12.364Z,22.60
2023-01-19T23:47:12.374Z,23.30
2023-01-19T23:48:12.387Z,23.70
2023-01-19T23:49:12.337Z,23.40
2023-01-19T23:50:12.299Z,22.60
2023-01-19T23:51:12.284Z,22.50
2023-01-19T23:52:12.340Z,22.70
2023-01-19T23:53:12.284Z,23.00
2023-01-19T23:54:12.360Z,23.40
2023-01-19T23:55:12.656Z,22.30
2023-01-19T23:56:12.229Z,23.40
2023-01-19T23:57:12.220Z,23.20
2023-01-19T23:58:12.348Z,23.60
2023-01-19T23:59:12.214Z,23.70
